createdAt,value
2016-12-14T00:00:04.182Z,7.1
2016-12-14T00:05:03.941Z,7.1
2016-12-14T00:10:03.978Z,7.1
2016-12-14T00:15:04.890Z,7.0
2016-12-14T00:20:04.783Z,7.0
2016-12-14T00:25:04.350Z,7.0
2016-12-14T00:30:04.965Z,7.0
2016-12-14T00:35:04.345Z,7.0
2016-12-14T00:40:04.321Z,7.0
2016-12-14T00:45:04.501Z,7.0
2016-12-14T00:50:04.356Z,7.0
2016-12-14T00:55:04.766Z,7.0
2016-12-14T01:00:04.384Z,7.0
2016-12-14T01:05:04.604Z,7.0
2016-12-14T01:10:04.094Z,7.0
2016-12-14T01:15:04.044Z,7.0
2016-12-14T01:20:04.735Z,7.0
2016-12-14T01:25:04.650Z,7.0
2016-12-14T01:30:03.955Z,7.0
2016-12-14T01:35:04.072Z,7.0
2016-12-14T01:40:04.938Z,7.0
2016-12-14T01:45:04.928Z,7.0
2016-12-14T01:50:04.675Z,7.1
2016-12-14T01:55:04.193Z,7.1
2016-12-14T02:00:04.485Z,7.1
2016-12-14T02:05:04.609Z,7.0
2016-12-14T02:10:04.948Z,7.0
2016-12-14T02:15:04.336Z,7.0
2016-12-14T02:20:04.539Z,6.9
2016-12-14T02:25:04.882Z,6.9
2016-12-14T02:30:04.167Z,7.0
2016-12-14T02:35:04.926Z,6.9
2016-12-14T02:40:04.705Z,7.0
2016-12-14T02:45:04.158Z,7.0
2016-12-14T02:50:04.686Z,7.0
2016-12-14T02:55:04.704Z,6.9
2016-12-14T03:00:04.935Z,6.9
2016-12-14T03:05:04.793Z,7.0
2016-12-14T03:10:03.978Z,6.9
2016-12-14T03:15:04.286Z,7.0
2016-12-14T03:20:04.453Z,6.9
2016-12-14T03:25:04.053Z,6.9
2016-12-14T03:30:04.690Z,6.6
2016-12-14T03:35:04.173Z,6.6
2016-12-14T03:40:04.860Z,6.6
2016-12-14T03:45:04.624Z,6.6
2016-12-14T03:50:04.270Z,6.6
2016-12-14T03:55:04.812Z,6.6
2016-12-14T04:00:04.258Z,6.6
2016-12-14T04:05:04.380Z,6.6
2016-12-14T04:10:04.782Z,6.6
2016-12-14T04:15:04.158Z,6.6
2016-12-14T04:20:04.507Z,6.6
2016-12-14T04:25:03.993Z,6.6
2016-12-14T04:30:04.472Z,6.6
2016-12-14T04:35:04.058Z,6.6
2016-12-14T04:40:04.155Z,6.6
2016-12-14T04:45:04.621Z,6.6
2016-12-14T04:50:03.934Z,6.9
2016-12-14T04:55:05.152Z,6.9
2016-12-14T05:00:04.844Z,6.9
2016-12-14T05:05:04.798Z,6.9
2016-12-14T05:10:04.020Z,6.6
2016-12-14T05:15:05.001Z,6.6
2016-12-14T05:20:04.916Z,6.6
2016-12-14T05:25:04.165Z,6.6
2016-12-14T05:30:04.172Z,6.6
2016-12-14T05:35:04.154Z,6.6
2016-12-14T05:40:04.303Z,6.5
2016-12-14T05:45:04.226Z,6.6
2016-12-14T05:50:04.252Z,6.5
2016-12-14T05:55:04.680Z,6.5
2016-12-14T06:00:03.785Z,6.5
2016-12-14T06:05:04.600Z,6.5
2016-12-14T06:10:04.105Z,6.6
2016-12-14T06:15:04.450Z,6.5
2016-12-14T06:20:04.087Z,6.6
2016-12-14T06:25:04.916Z,6.6
2016-12-14T06:30:03.993Z,6.6
2016-12-14T06:35:05.210Z,6.5
2016-12-14T06:40:05.046Z,6.6
2016-12-14T06:45:04.309Z,6.6
2016-12-14T06:50:04.269Z,6.6
2016-12-14T06:55:04.030Z,6.5
2016-12-14T07:00:04.057Z,6.5
2016-12-14T07:05:04.174Z,6.6
2016-12-14T07:10:04.827Z,6.6
2016-12-14T07:15:05.371Z,6.5
2016-12-14T07:20:04.351Z,6.5
2016-12-14T07:25:04.845Z,6.5
2016-12-14T07:30:04.885Z,6.5
2016-12-14T07:35:04.735Z,6.5
2016-12-14T07:40:04.975Z,6.6
2016-12-14T07:45:04.747Z,6.6
2016-12-14T07:50:04.111Z,6.6
2016-12-14T07:55:04.439Z,6.9
2016-12-14T08:00:04.478Z,6.9
2016-12-14T08:05:04.820Z,7.0
2016-12-14T08:10:04.835Z,7.0
2016-12-14T08:15:04.693Z,6.9
2016-12-14T08:20:04.870Z,6.9
2016-12-14T08:25:04.645Z,7.0
2016-12-14T08:30:04.833Z,7.4
2016-12-14T08:35:04.802Z,7.1
2016-12-14T08:40:04.141Z,7.1
2016-12-14T08:45:04.741Z,7.0
2016-12-14T08:50:04.312Z,7.1
2016-12-14T08:55:04.673Z,7.1
2016-12-14T09:00:04.534Z,7.1
2016-12-14T09:05:04.771Z,7.1
2016-12-14T09:10:04.812Z,7.4
2016-12-14T09:15:04.343Z,7.5
2016-12-14T09:20:04.747Z,7.4
2016-12-14T09:25:04.141Z,7.6
2016-12-14T09:30:04.903Z,7.9
2016-12-14T09:35:04.197Z,8.0
2016-12-14T09:40:04.858Z,8.1
2016-12-14T09:45:04.409Z,8.1
2016-12-14T09:50:04.548Z,8.0
2016-12-14T09:55:03.884Z,8.1
2016-12-14T10:00:04.767Z,8.1
2016-12-14T10:05:04.242Z,8.3
2016-12-14T10:10:04.137Z,8.5
2016-12-14T10:15:04.618Z,8.5
2016-12-14T10:20:04.124Z,8.5
2016-12-14T10:25:04.550Z,8.6
2016-12-14T10:30:04.824Z,8.6
2016-12-14T10:35:04.086Z,8.5
2016-12-14T10:40:05.014Z,8.5
2016-12-14T10:45:03.970Z,8.8
2016-12-14T10:50:04.796Z,9.0
2016-12-14T10:55:04.783Z,9.0
2016-12-14T11:00:04.943Z,9.0
2016-12-14T11:05:04.964Z,9.1
2016-12-14T11:10:04.362Z,9.3
2016-12-14T11:15:03.813Z,9.3
2016-12-14T11:20:04.593Z,9.5
2016-12-14T11:25:04.744Z,9.6
2016-12-14T11:30:04.826Z,9.5
2016-12-14T11:35:04.292Z,10.0
2016-12-14T11:40:04.393Z,10.1
2016-12-14T11:45:04.750Z,10.1
2016-12-14T11:50:04.808Z,10.5
2016-12-14T11:55:04.691Z,10.5
2016-12-14T12:00:04.062Z,10.3
2016-12-14T12:05:04.281Z,10.0
2016-12-14T12:10:04.328Z,10.0
2016-12-14T12:15:04.591Z,9.8
2016-12-14T12:20:04.112Z,10.1
2016-12-14T12:25:04.360Z,10.1
2016-12-14T12:30:04.232Z,10.6
2016-12-14T12:35:04.320Z,10.1
2016-12-14T12:40:04.678Z,10.3
2016-12-14T12:45:04.673Z,10.1
2016-12-14T12:50:04.665Z,10.1
2016-12-14T12:55:03.883Z,10.1
2016-12-14T13:00:04.099Z,10.0
2016-12-14T13:05:04.150Z,10.3
2016-12-14T13:10:04.497Z,10.6
2016-12-14T13:15:03.908Z,10.8
2016-12-14T13:20:04.357Z,10.5
2016-12-14T13:25:04.339Z,10.6
2016-12-14T13:30:04.698Z,10.5
2016-12-14T13:35:03.910Z,10.6
2016-12-14T13:40:04.400Z,10.8
2016-12-14T13:45:04.126Z,10.6
2016-12-14T13:50:04.460Z,10.5
2016-12-14T13:55:04.749Z,10.3
2016-12-14T14:00:04.187Z,10.3
2016-12-14T14:05:04.549Z,10.8
2016-12-14T14:10:04.674Z,11.1
2016-12-14T14:15:03.766Z,11.0
2016-12-14T14:20:04.290Z,11.1
2016-12-14T14:25:04.239Z,10.8
2016-12-14T14:30:03.981Z,10.6
2016-12-14T14:35:04.010Z,10.5
2016-12-14T14:40:03.909Z,10.6
2016-12-14T14:45:03.941Z,10.3
2016-12-14T14:50:04.411Z,10.1
2016-12-14T14:55:04.783Z,10.1
2016-12-14T15:00:04.488Z,10.1
2016-12-14T15:05:04.601Z,10.0
2016-12-14T15:10:04.110Z,10.0
2016-12-14T15:15:04.659Z,10.0
2016-12-14T15:20:04.619Z,10.0
2016-12-14T15:25:04.526Z,9.8
2016-12-14T15:30:04.763Z,9.8
2016-12-14T15:35:04.081Z,9.6
2016-12-14T15:40:04.671Z,9.6
2016-12-14T15:45:04.599Z,9.6
2016-12-14T15:50:04.305Z,9.6
2016-12-14T15:55:04.142Z,9.6
2016-12-14T16:00:03.850Z,9.5
2016-12-14T16:05:04.465Z,9.5
2016-12-14T16:10:04.297Z,9.6
2016-12-14T16:15:04.226Z,9.5
2016-12-14T16:20:04.113Z,9.5
2016-12-14T16:25:04.607Z,9.3
2016-12-14T16:30:03.985Z,9.0
2016-12-14T16:35:04.488Z,8.8
2016-12-14T16:40:04.577Z,8.6
2016-12-14T16:45:04.427Z,8.5
2016-12-14T16:50:04.888Z,8.3
2016-12-14T16:55:04.211Z,8.3
2016-12-14T17:00:05.435Z,8.1
2016-12-14T17:05:04.887Z,8.1
2016-12-14T17:10:04.508Z,7.9
2016-12-14T17:15:04.859Z,8.0
2016-12-14T17:20:03.983Z,8.0
2016-12-14T17:25:04.616Z,7.9
2016-12-14T17:30:05.008Z,7.6
2016-12-14T17:35:04.521Z,7.6
2016-12-14T17:40:04.197Z,7.9
2016-12-14T17:45:04.312Z,7.4
2016-12-14T17:50:04.168Z,7.0
2016-12-14T17:55:04.561Z,7.0
2016-12-14T18:00:04.815Z,6.9
2016-12-14T18:05:04.546Z,6.9
2016-12-14T18:10:04.482Z,6.6
2016-12-14T18:15:04.088Z,6.6
2016-12-14T18:20:04.845Z,6.6
2016-12-14T18:25:04.443Z,6.6
2016-12-14T18:30:04.582Z,6.6
2016-12-14T18:35:04.400Z,6.6
2016-12-14T18:40:04.352Z,6.4
2016-12-14T18:45:04.485Z,6.1
2016-12-14T18:50:04.396Z,5.9
2016-12-14T18:55:04.898Z,5.9
2016-12-14T19:00:04.013Z,5.9
2016-12-14T19:05:04.429Z,5.9
2016-12-14T19:10:04.468Z,5.9
2016-12-14T19:15:04.242Z,6.0
2016-12-14T19:20:04.907Z,6.1
2016-12-14T19:25:04.254Z,6.1
2016-12-14T19:30:04.483Z,6.1
2016-12-14T19:35:04.944Z,6.1
2016-12-14T19:40:04.285Z,6.4
2016-12-14T19:45:04.549Z,6.5
2016-12-14T19:50:03.943Z,6.6
2016-12-14T19:55:04.020Z,6.6
2016-12-14T20:00:04.058Z,6.6
2016-12-14T20:05:04.936Z,6.9
2016-12-14T20:10:04.490Z,7.0
2016-12-14T20:15:04.256Z,7.0
2016-12-14T20:20:04.711Z,7.0
2016-12-14T20:25:04.537Z,7.1
2016-12-14T20:30:04.410Z,7.4
2016-12-14T20:35:04.324Z,7.4
2016-12-14T20:40:04.000Z,7.5
2016-12-14T20:45:04.760Z,7.9
2016-12-14T20:50:04.548Z,7.6
2016-12-14T20:55:04.450Z,7.9
2016-12-14T21:00:04.727Z,7.6
2016-12-14T21:05:04.629Z,7.6
2016-12-14T21:10:04.160Z,7.9
2016-12-14T21:15:04.380Z,7.9
2016-12-14T21:20:04.818Z,7.9
2016-12-14T21:25:04.383Z,8.0
2016-12-14T21:30:04.967Z,8.1
2016-12-14T21:35:04.732Z,8.3
2016-12-14T21:40:04.610Z,8.3
2016-12-14T21:45:04.134Z,8.5
2016-12-14T21:50:04.523Z,8.5
2016-12-14T21:55:05.096Z,8.6
2016-12-14T22:00:04.475Z,8.6
2016-12-14T22:05:03.991Z,8.3
2016-12-14T22:10:04.668Z,8.1
2016-12-14T22:15:04.381Z,8.3
2016-12-14T22:20:03.957Z,8.3
2016-12-14T22:25:04.472Z,8.6
2016-12-14T22:30:04.635Z,8.3
2016-12-14T22:35:04.863Z,8.0
2016-12-14T22:40:04.311Z,8.0
2016-12-14T22:45:04.792Z,8.3
2016-12-14T22:50:04.199Z,8.3
2016-12-14T22:55:04.373Z,8.3
2016-12-14T23:00:04.211Z,8.5
2016-12-14T23:05:04.138Z,8.6
2016-12-14T23:10:04.323Z,8.6
2016-12-14T23:15:04.657Z,8.6
2016-12-14T23:20:04.755Z,8.6
2016-12-14T23:25:04.279Z,8.5
2016-12-14T23:30:04.583Z,8.1
2016-12-14T23:35:04.030Z,8.1
2016-12-14T23:40:04.866Z,7.6
2016-12-14T23:45:04.159Z,7.9
2016-12-14T23:50:04.161Z,7.9
2016-12-14T23:55:04.265Z,7.6
